Time;durP1;ratioP1;P1;durP2;ratioP2;P2;SDS_P1;SDS_P2;PMS_P1;PMS_P2;Temp;Humidity;BMP_temperature;BMP_pressure;BME280_temperature;BME280_humidity;BME280_pressure;Samples;Min_cycle;Max_cycle;Signal;HPM_P1;HPM_P2
2022/08/22 00:14:03;;;;;;;;;;;;;;;15.93;80.10;99993.72;30851975;28;96713;-59
2022/08/22 00:29:10;;;;;;;6.37;3.00;;;;;;;15.93;80.37;100010.66;30861285;28;96616;-60
2022/08/22 00:44:38;;;;;;;5.40;2.63;;;;;;;15.93;80.60;99991.06;30869352;28;97418;-60
2022/08/22 01:00:12;;;;;;;4.27;2.40;;;;;;;15.94;80.50;99990.00;30868440;28;96796;-59
2022/08/22 01:15:21;;;;;;;3.50;2.40;;;;;;;15.88;80.50;99968.34;30866645;28;97954;-60
2022/08/22 01:30:27;;;;;;;4.93;2.53;;;;;;;15.82;80.46;99989.84;30864546;28;96562;-60
2022/08/22 01:45:33;;;;;;;4.23;2.90;;;;;;;15.78;80.78;99980.50;30862049;28;97538;-60
2022/08/22 02:00:56;;;;;;;5.37;2.10;;;;;;;15.76;80.61;99983.41;30861787;28;97329;-60
2022/08/22 02:16:10;;;;;;;5.03;2.40;;;;;;;15.69;80.63;99986.09;30860404;28;97038;-60
2022/08/22 02:31:19;;;;;;;6.07;2.30;;;;;;;15.59;81.04;99992.94;30859001;28;96707;-60
2022/08/22 02:46:50;;;;;;;3.90;2.10;;;;;;;15.56;80.62;99986.94;30857007;28;96764;-60
2022/08/22 03:01:50;;;;;;;4.80;2.27;;;;;;;15.56;80.84;100002.22;30854949;28;96724;-60
2022/08/22 03:17:01;;;;;;;4.97;2.00;;;;;;;15.52;80.88;100012.53;30854156;28;97594;-60
2022/08/22 03:32:10;;;;;;;4.50;2.17;;;;;;;15.46;81.04;100013.38;30853695;28;96748;-60
2022/08/22 03:47:46;;;;;;;2.73;1.97;;;;;;;15.39;80.76;100015.22;30850976;28;96697;-60
2022/08/22 04:02:59;;;;;;;5.63;2.30;;;;;;;15.39;80.99;100013.38;30857980;28;97021;-60
2022/08/22 04:18:30;;;;;;;4.60;1.83;;;;;;;15.32;81.33;100015.25;30869626;28;96771;-60
2022/08/22 04:33:51;;;;;;;4.57;1.80;;;;;;;15.30;81.43;100013.78;30867639;28;96723;-60
2022/08/22 04:49:04;;;;;;;2.80;1.60;;;;;;;15.28;80.88;100023.88;30866021;28;97178;-60
2022/08/22 05:04:09;;;;;;;3.87;1.73;;;;;;;15.31;81.13;100016.25;30863600;28;96737;-60
2022/08/22 05:19:18;;;;;;;2.67;1.63;;;;;;;15.35;81.28;100019.34;30864225;28;97767;-60
2022/08/22 05:34:22;;;;;;;3.97;2.10;;;;;;;15.33;80.90;100040.22;30863819;28;97925;-60
2022/08/22 05:49:39;;;;;;;3.10;1.90;;;;;;;15.32;81.51;100039.41;30860459;28;96803;-60
2022/08/22 06:04:58;;;;;;;3.07;2.10;;;;;;;15.30;81.33;100056.72;30858772;28;96735;-60
2022/08/22 06:19:59;;;;;;;3.67;1.77;;;;;;;15.27;81.34;100067.84;30856233;28;97388;-60
2022/08/22 06:51:00;;;;;;;2.77;1.70;;;;;;;15.25;81.13;100075.28;30851731;28;96882;-60
2022/08/22 07:06:02;;;;;;;3.80;2.00;;;;;;;15.26;81.17;100064.34;30853441;28;96641;-60
2022/08/22 07:21:03;;;;;;;3.53;1.77;;;;;;;15.36;81.15;100061.25;30851857;28;96677;-60
2022/08/22 07:36:18;;;;;;;3.25;1.80;;;;;;;15.40;81.30;100074.09;30859036;28;97216;-60
2022/08/22 07:51:31;;;;;;;2.80;1.80;;;;;;;15.70;81.54;100056.72;30872181;28;96675;-60
2022/08/22 08:06:33;;;;;;;5.13;2.17;;;;;;;15.90;81.33;100075.56;30870169;28;96675;-60
2022/08/22 08:21:41;;;;;;;2.00;1.30;;;;;;;16.12;81.19;100080.72;30869160;28;96942;-60
2022/08/22 08:37:09;;;;;;;1.90;1.50;;;;;;;16.22;81.01;100079.25;30866538;28;97477;-60
2022/08/22 08:52:18;;;;;;;2.10;1.60;;;;;;;16.38;81.08;100077.13;30865411;28;96742;-59
2022/08/22 09:07:24;;;;;;;5.00;1.77;;;;;;;16.58;80.94;100066.31;30866018;28;96739;-59
2022/08/22 09:23:03;;;;;;;5.70;2.50;;;;;;;16.96;80.84;100070.09;30864905;28;96831;-58
2022/08/22 09:38:12;;;;;;;2.77;2.00;;;;;;;17.17;80.34;100063.56;30846850;28;96714;-59
2022/08/22 09:53:22;;;;;;;4.93;3.50;;;;;;;17.19;80.27;100062.28;30859358;28;96741;-59
2022/08/22 10:08:49;;;;;;;6.37;3.70;;;;;;;17.30;79.95;100065.34;30857299;28;104285;-60
2022/08/22 10:23:49;;;;;;;7.87;4.00;;;;;;;17.32;80.00;100060.53;30857286;28;96733;-59
2022/08/22 10:38:53;;;;;;;7.10;4.85;;;;;;;17.16;80.07;100065.41;30854294;28;96795;-59
2022/08/22 10:54:12;;;;;;;6.73;4.90;;;;;;;17.10;80.16;100066.28;30855209;28;96730;-59
2022/08/22 11:09:19;;;;;;;9.03;5.37;;;;;;;17.14;80.31;100064.81;30854695;28;96692;-59
2022/08/22 11:24:26;;;;;;;7.87;5.63;;;;;;;17.33;80.31;100070.28;30854380;28;97263;-59
2022/08/22 11:39:51;;;;;;;8.77;5.10;;;;;;;17.49;80.33;100074.31;30851595;28;96702;-59
2022/08/22 11:54:51;;;;;;;9.73;6.30;;;;;;;17.61;80.27;100087.91;30851401;28;97434;-59
2022/08/22 12:10:11;;;;;;;9.82;6.55;;;;;;;17.85;80.17;100079.00;30849735;28;96739;-59
2022/08/22 12:25:29;;;;;;;7.87;5.80;;;;;;;18.29;79.83;100079.03;30858475;28;96750;-60
2022/08/22 12:40:50;;;;;;;8.50;6.13;;;;;;;18.27;79.31;100071.16;30867491;28;96716;-60
2022/08/22 12:56:02;;;;;;;9.47;6.63;;;;;;;18.41;79.33;100065.59;30865902;28;96776;-59
2022/08/22 13:11:07;;;;;;;8.87;7.73;;;;;;;18.35;79.14;100066.50;30864287;28;97496;-59
2022/08/22 13:26:21;;;;;;;9.57;7.10;;;;;;;18.33;79.26;100068.59;30861468;28;97104;-59
2022/08/22 13:41:30;;;;;;;9.00;7.43;;;;;;;18.28;79.27;100066.56;30860436;28;96786;-60
2022/08/22 13:57:06;;;;;;;11.03;8.93;;;;;;;18.32;79.60;100064.25;30859565;28;97005;-59
2022/08/22 14:12:07;;;;;;;11.17;8.83;;;;;;;18.32;79.49;100057.00;30858384;28;97199;-59
2022/08/22 14:27:12;;;;;;;12.30;9.70;;;;;;;18.30;79.48;100060.94;30858019;28;96927;-59
2022/08/22 14:42:21;;;;;;;13.43;9.60;;;;;;;18.20;79.46;100051.50;30856671;28;96829;-59
2022/08/22 14:57:22;;;;;;;14.63;9.53;;;;;;;18.12;79.71;100043.72;30855084;28;96932;-60
2022/08/22 15:12:43;;;;;;;13.35;9.57;;;;;;;18.08;79.95;100056.84;30853305;28;97242;-60
2022/08/22 15:27:47;;;;;;;;;;;;;;;18.18;80.15;100042.84;30852081;28;97355;-59
2022/08/22 15:42:50;;;;;;;15.60;10.50;;;;;;;18.16;80.02;100042.22;30853277;28;96733;-59
2022/08/22 15:58:08;;;;;;;16.57;9.97;;;;;;;18.15;80.05;100042.44;30856762;28;96889;-59
2022/08/22 16:13:28;;;;;;;16.47;11.67;;;;;;;18.07;80.19;100048.94;30870598;28;97355;-59
2022/08/22 16:28:44;;;;;;;17.93;11.53;;;;;;;17.99;80.20;100051.94;30869186;28;97463;-59
2022/08/22 16:44:18;;;;;;;20.53;13.13;;;;;;;18.01;80.60;100044.47;30866554;28;96704;-59
2022/08/22 16:59:35;;;;;;;16.13;12.03;;;;;;;18.00;80.52;100053.59;30863549;28;96845;-59
2022/08/22 17:14:53;;;;;;;21.57;12.53;;;;;;;17.96;80.63;100066.69;30862008;28;96646;-59
2022/08/22 17:30:05;;;;;;;16.03;12.47;;;;;;;17.90;80.90;100067.53;30861253;28;96640;-59
2022/08/22 17:45:26;;;;;;;22.57;12.90;;;;;;;17.81;80.90;100075.09;30858353;28;97125;-59
2022/08/22 18:00:33;;;;;;;18.53;13.77;;;;;;;17.73;81.51;100068.09;30858973;28;96790;-59
2022/08/22 18:15:57;;;;;;;28.70;17.53;;;;;;;17.63;81.60;100075.84;30857496;28;97250;-59
2022/08/22 18:31:08;;;;;;;23.17;14.13;;;;;;;17.55;81.80;100085.03;30858509;28;96705;-59
2022/08/22 18:46:36;;;;;;;19.93;14.80;;;;;;;17.50;82.02;100078.66;30854960;28;96720;-59
2022/08/22 19:01:49;;;;;;;18.33;14.80;;;;;;;17.44;82.22;100080.34;30855122;28;96984;-59
2022/08/22 19:17:27;;;;;;;21.43;14.40;;;;;;;17.43;82.55;100073.31;30853728;28;96744;-60
2022/08/22 19:32:45;;;;;;;17.50;12.63;;;;;;;17.40;82.67;100076.44;30853990;28;97513;-59
2022/08/22 19:47:59;;;;;;;18.13;13.00;;;;;;;17.41;82.87;100075.41;30850748;28;97799;-59
2022/08/22 20:03:10;;;;;;;14.40;10.90;;;;;;;17.35;82.99;100073.59;30850810;28;96688;-58
2022/08/22 20:18:12;;;;;;;15.37;10.70;;;;;;;17.31;82.67;100069.69;30849811;28;96744;-59
2022/08/22 20:33:27;;;;;;;13.27;10.87;;;;;;;17.30;83.27;100052.69;30849349;28;97369;-59
2022/08/22 20:48:41;;;;;;;11.40;9.80;;;;;;;17.28;83.31;100051.25;30860371;28;96787;-59
2022/08/22 21:03:47;;;;;;;12.30;10.40;;;;;;;17.22;83.64;100045.72;30867553;28;96914;-59
2022/08/22 21:18:50;;;;;;;12.53;9.90;;;;;;;17.24;83.54;100027.47;30865301;28;96705;-59
2022/08/22 21:33:53;;;;;;;13.83;8.97;;;;;;;17.23;83.77;100017.72;30863810;28;97546;-59
2022/08/22 21:49:00;;;;;;;13.47;9.67;;;;;;;17.24;83.90;100008.63;30862878;28;96864;-59
2022/08/22 22:04:01;;;;;;;9.80;8.37;;;;;;;17.25;83.96;100015.66;30862040;28;97209;-59
2022/08/22 22:19:06;;;;;;;10.18;8.80;;;;;;;17.25;83.89;100007.59;30860461;28;97529;-59
2022/08/22 22:34:06;;;;;;;10.80;8.27;;;;;;;17.31;84.13;100003.19;30859986;28;97425;-59
2022/08/22 22:49:06;;;;;;;11.55;8.63;;;;;;;17.33;84.10;100013.75;30857696;28;97004;-59
2022/08/22 23:04:07;;;;;;;12.57;8.27;;;;;;;17.37;84.27;99996.09;30856944;28;96828;-59
2022/08/22 23:19:13;;;;;;;11.30;9.20;;;;;;;17.39;84.36;99994.03;30855811;28;97454;-59
2022/08/22 23:34:16;;;;;;;12.80;9.70;;;;;;;17.37;84.40;99974.56;30855323;28;96730;-59
2022/08/22 23:49:17;;;;;;;13.40;11.03;;;;;;;17.33;84.41;99976.03;30851463;28;97024;-59
